Time;durP1;ratioP1;P1;durP2;ratioP2;P2;SDS_P1;SDS_P2;PMS_P1;PMS_P2;Temp;Humidity;BMP_temperature;BMP_pressure;BME280_temperature;BME280_humidity;BME280_pressure;Samples;Min_cycle;Max_cycle;Signal;HPM_P1;HPM_P2
2022/02/02 00:02:18;;;;;;;4.10;1.53;;;9.00;1.00;;;;;;5049146;28;20430;-76
2022/02/02 00:04:48;;;;;;;5.20;1.50;;;9.00;1.00;;;;;;5039312;28;20429;-76
2022/02/02 00:09:53;;;;;;;8.23;1.67;;;9.10;1.00;;;;;;5052582;28;20516;-76
2022/02/02 00:12:47;;;;;;;4.90;2.10;;;9.10;1.00;;;;;;5056751;28;20414;-75
2022/02/02 00:20:48;;;;;;;10.27;2.20;;;9.10;1.00;;;;;;5056795;28;20901;-75
2022/02/02 00:23:20;;;;;;;14.87;2.10;;;9.10;1.00;;;;;;5042995;28;20451;-75
2022/02/02 00:25:52;;;;;;;9.03;2.00;;;9.20;1.00;;;;;;5042495;28;20458;-75
2022/02/02 00:28:25;;;;;;;4.30;1.30;;;9.20;1.00;;;;;;5047657;28;20431;-75
2022/02/02 00:30:52;;;;;;;11.17;2.37;;;9.10;1.00;;;;;;5043586;28;20431;-75
2022/02/02 00:33:23;;;;;;;13.07;1.93;;;9.20;1.00;;;;;;5036449;28;20414;-75
2022/02/02 00:36:09;;;;;;;12.40;2.60;;;9.30;1.00;;;;;;5055383;28;20461;-75
2022/02/02 00:38:35;;;;;;;5.23;1.63;;;9.30;1.00;;;;;;5049671;28;20445;-76
2022/02/02 00:41:00;;;;;;;2.70;1.40;;;9.30;1.00;;;;;;5056165;28;20980;-75
2022/02/02 00:43:59;;;;;;;2.33;1.20;;;9.30;1.00;;;;;;5056659;28;20192;-75
2022/02/02 00:46:27;;;;;;;6.10;1.83;;;9.20;1.00;;;;;;5044828;28;20237;-75
2022/02/02 00:48:59;;;;;;;3.60;1.73;;;9.30;1.00;;;;;;5051688;28;20419;-76
2022/02/02 00:54:04;;;;;;;9.80;1.63;;;9.10;1.00;;;;;;5043443;28;20967;-76
2022/02/02 00:56:29;;;;;;;13.60;2.30;;;9.10;1.00;;;;;;5048135;28;20422;-76
2022/02/02 00:59:00;;;;;;;17.90;2.97;;;9.10;1.00;;;;;;5056553;28;20421;-75
2022/02/02 01:01:31;;;;;;;9.83;2.93;;;9.10;1.00;;;;;;5056022;28;20533;-75
2022/02/02 01:03:56;;;;;;;15.13;2.70;;;9.20;1.00;;;;;;5055940;28;20437;-75
2022/02/02 01:06:24;;;;;;;10.23;2.50;;;9.20;1.00;;;;;;5055660;28;20484;-75
2022/02/02 01:30:10;;;;;;;6.77;2.00;;;9.10;1.00;;;;;;5045568;28;20410;-76
2022/02/02 01:32:42;;;;;;;8.00;2.43;;;9.10;1.00;;;;;;5051533;28;20420;-75
2022/02/02 01:35:14;;;;;;;12.80;2.73;;;9.20;1.00;;;;;;5046809;28;20430;-75
2022/02/02 01:37:44;;;;;;;16.53;2.33;;;9.20;1.00;;;;;;5049799;28;20435;-76
2022/02/02 01:40:31;;;;;;;7.23;1.60;;;9.20;1.00;;;;;;5055278;28;20516;-76
2022/02/02 01:43:14;;;;;;;4.80;1.70;;;9.30;1.00;;;;;;5050254;28;20406;-75
2022/02/02 01:45:51;;;;;;;8.13;2.00;;;9.20;1.00;;;;;;5055731;28;20488;-75
2022/02/02 01:51:07;;;;;;;2.03;1.50;;;9.20;1.00;;;;;;5055180;28;20390;-76
2022/02/02 01:53:58;;;;;;;5.33;1.93;;;9.20;1.00;;;;;;5069895;28;20422;-76
2022/02/02 01:56:24;;;;;;;6.17;2.03;;;9.20;1.00;;;;;;5054814;28;20418;-75
2022/02/02 01:59:04;;;;;;;20.83;2.33;;;9.30;1.00;;;;;;5054959;28;20533;-75
2022/02/02 02:01:30;;;;;;;8.30;1.80;;;9.20;1.00;;;;;;5041237;28;20411;-75
2022/02/02 02:03:58;;;;;;;8.47;2.20;;;9.20;1.00;;;;;;5043482;28;20453;-75
2022/02/02 02:06:25;;;;;;;14.60;2.40;;;9.20;1.00;;;;;;5054790;28;20446;-75
2022/02/02 02:08:51;;;;;;;13.77;1.93;;;9.20;1.00;;;;;;5054577;28;20453;-75
2022/02/02 02:11:20;;;;;;;4.63;2.10;;;9.20;1.00;;;;;;5054770;28;20406;-76
2022/02/02 02:16:48;;;;;;;16.10;2.23;;;9.20;1.00;;;;;;5034445;28;20406;-75
2022/02/02 02:19:25;;;;;;;6.00;2.30;;;9.20;1.00;;;;;;5053878;28;20924;-75
2022/02/02 02:21:52;;;;;;;11.00;1.87;;;9.20;1.00;;;;;;5052747;28;20966;-75
2022/02/02 02:24:18;;;;;;;8.00;2.30;;;9.20;1.00;;;;;;5053270;28;20483;-75
2022/02/02 02:26:43;;;;;;;19.53;3.13;;;9.20;1.00;;;;;;5049399;28;20960;-75
2022/02/02 02:34:29;;;;;;;6.97;2.50;;;9.10;1.00;;;;;;5054801;28;20394;-75
2022/02/02 02:39:59;;;;;;;7.57;2.37;;;9.10;1.00;;;;;;5054202;28;20433;-75
2022/02/02 02:56:43;;;;;;;16.03;2.33;;;9.00;1.00;;;;;;5046758;28;20440;-75
2022/02/02 02:59:17;;;;;;;11.93;1.83;;;9.00;1.00;;;;;;5053976;28;20768;-75
2022/02/02 03:02:40;;;;;;;6.73;1.90;;;9.00;1.00;;;;;;5051826;28;20970;-75
2022/02/02 03:30:18;;;;;;;12.53;2.90;;;8.90;1.00;;;;;;5042033;28;20401;-75
2022/02/02 03:34:27;;;;;;;11.87;2.50;;;8.90;1.00;;;;;;5052005;28;20457;-76
2022/02/02 03:56:16;;;;;;;11.57;2.33;;;8.90;1.00;;;;;;5052537;28;20429;-76
2022/02/02 03:58:41;;;;;;;14.40;2.30;;;8.80;1.00;;;;;;5052739;28;20434;-76
2022/02/02 04:06:57;;;;;;;10.70;2.70;;;8.70;1.00;;;;;;5049087;28;20549;-75
2022/02/02 04:09:23;;;;;;;5.53;2.83;;;8.70;1.00;;;;;;5044948;28;20458;-75
2022/02/02 04:12:09;;;;;;;11.40;1.90;;;8.70;1.00;;;;;;5052974;28;20889;-75
2022/02/02 04:52:01;;;;;;;6.10;2.10;;;8.70;1.00;;;;;;4927809;29;20507;-75
2022/02/02 04:54:37;;;;;;;7.73;2.20;;;8.80;1.00;;;;;;4907607;29;20435;-76
2022/02/02 04:59:58;;;;;;;7.37;2.33;;;8.80;1.00;;;;;;4955861;29;20438;-76
2022/02/02 05:10:53;;;;;;;13.63;2.63;;;8.70;1.00;;;;;;4965612;28;20884;-75
2022/02/02 05:19:57;;;;;;;8.20;2.73;;;8.80;1.00;;;;;;4985459;28;20468;-75
2022/02/02 05:23:14;;;;;;;8.83;2.00;;;8.70;1.00;;;;;;5048258;28;20929;-75
2022/02/02 05:52:50;;;;;;;15.83;2.57;;;8.80;1.00;;;;;;4980326;28;20479;-75
2022/02/02 05:55:24;;;;;;;11.67;3.70;;;8.80;1.00;;;;;;4977029;28;20436;-75
2022/02/02 05:58:02;;;;;;;15.20;2.20;;;8.80;1.00;;;;;;4973874;28;20425;-75
2022/02/02 06:00:38;;;;;;;22.07;2.97;;;8.80;1.00;;;;;;4974399;28;20897;-76
2022/02/02 06:03:13;;;;;;;8.90;3.03;;;8.80;1.00;;;;;;4977740;28;20464;-75
2022/02/02 06:05:41;;;;;;;10.40;2.77;;;8.80;1.00;;;;;;4990920;28;20428;-75
2022/02/02 06:08:14;;;;;;;10.87;2.70;;;8.80;1.00;;;;;;5038048;28;21008;-75
2022/02/02 06:10:42;;;;;;;11.43;2.60;;;8.80;1.00;;;;;;5054826;28;20449;-76
2022/02/02 06:13:13;;;;;;;9.53;3.20;;;8.80;1.00;;;;;;5054749;28;20406;-75
2022/02/02 06:15:40;;;;;;;11.77;2.87;;;8.80;1.00;;;;;;5053493;28;20917;-76
2022/02/02 06:18:06;;;;;;;9.77;2.80;;;8.80;1.00;;;;;;5050448;28;20779;-74
2022/02/02 06:20:38;;;;;;;7.07;3.03;;;8.80;1.00;;;;;;5044791;28;20430;-75
2022/02/02 06:23:14;;;;;;;12.20;2.50;;;8.80;1.00;;;;;;5054606;28;20948;-75
2022/02/02 06:25:45;;;;;;;6.47;2.43;;;8.60;1.00;;;;;;5054313;28;20457;-74
2022/02/02 06:28:23;;;;;;;4.50;2.20;;;8.60;1.00;;;;;;5054571;28;20406;-76
2022/02/02 06:31:01;;;;;;;18.37;2.77;;;8.60;1.00;;;;;;5054430;28;20773;-75
2022/02/02 06:33:36;;;;;;;11.50;2.87;;;8.60;1.00;;;;;;5054574;28;20406;-75
2022/02/02 06:36:04;;;;;;;16.13;2.80;;;8.60;1.00;;;;;;5041029;28;20539;-75
2022/02/02 06:38:32;;;;;;;13.20;2.50;;;8.50;1.00;;;;;;5053057;28;20933;-75
2022/02/02 06:40:59;;;;;;;9.10;2.27;;;8.50;1.00;;;;;;5053655;28;20422;-75
2022/02/02 06:43:37;;;;;;;5.63;2.87;;;8.50;1.00;;;;;;5056514;28;20436;-75
2022/02/02 06:46:03;;;;;;;8.93;3.07;;;9.60;1.00;;;;;;5053233;28;20805;-75
2022/02/02 06:48:32;;;;;;;11.17;2.50;;;8.50;1.00;;;;;;5053233;28;20414;-75
2022/02/02 06:51:31;;;;;;;12.40;3.73;;;10.60;1.00;;;;;;5047833;28;20433;-79
2022/02/02 06:54:27;;;;;;;22.33;2.27;;;8.60;1.00;;;;;;5057578;28;20509;-81
2022/02/02 06:57:11;;;;;;;10.60;3.10;;;8.70;1.00;;;;;;5007205;28;20542;-75
2022/02/02 07:00:11;;;;;;;8.13;1.97;;;8.70;1.00;;;;;;5012224;28;20486;-75
2022/02/02 07:02:52;;;;;;;11.83;3.30;;;8.70;1.00;;;;;;5015481;28;20430;-75
2022/02/02 07:05:33;;;;;;;3.20;2.30;;;8.70;1.00;;;;;;5031084;28;20836;-75
2022/02/02 07:14:19;;;;;;;14.00;2.77;;;8.80;1.00;;;;;;4992423;28;20424;-75
2022/02/02 07:20:05;;;;;;;4.97;2.10;;;8.70;1.00;;;;;;5012359;28;20755;-76
2022/02/02 07:27:55;;;;;;;6.60;1.93;;;8.80;1.00;;;;;;5002795;28;21013;-75
2022/02/02 07:33:19;;;;;;;12.03;2.53;;;8.80;1.00;;;;;;4968301;28;20428;-76
2022/02/02 07:36:01;;;;;;;8.70;2.50;;;8.90;1.00;;;;;;4984771;28;20624;-75
2022/02/02 07:38:59;;;;;;;12.47;2.70;;;8.80;1.00;;;;;;4991498;28;20432;-76
2022/02/02 07:41:32;;;;;;;9.27;2.50;;;8.90;1.00;;;;;;4961253;28;20821;-75
2022/02/02 07:44:06;;;;;;;7.80;2.67;;;8.90;1.00;;;;;;4991666;28;20963;-75
2022/02/02 07:46:33;;;;;;;24.13;2.27;;;9.10;1.00;;;;;;4991368;28;20860;-75
2022/02/02 07:49:00;;;;;;;7.10;2.13;;;9.00;1.00;;;;;;4967801;28;20436;-75
2022/02/02 07:51:32;;;;;;;8.83;2.13;;;9.00;1.00;;;;;;4989913;28;20424;-75
2022/02/02 07:54:02;;;;;;;11.87;2.83;;;9.00;1.00;;;;;;4985870;28;20931;-75
2022/02/02 07:56:40;;;;;;;6.30;1.57;;;9.00;1.00;;;;;;4985829;28;20444;-75
2022/02/02 07:59:38;;;;;;;9.33;2.40;;;9.00;1.00;;;;;;4991177;28;20972;-76
2022/02/02 08:02:24;;;;;;;8.47;2.20;;;9.00;1.00;;;;;;4989557;28;20425;-75
2022/02/02 08:04:50;;;;;;;12.63;2.87;;;9.00;1.00;;;;;;4991583;28;20412;-75
2022/02/02 08:07:23;;;;;;;6.33;2.43;;;9.00;1.00;;;;;;4990865;28;20456;-76
2022/02/02 08:10:06;;;;;;;11.73;2.67;;;9.00;1.00;;;;;;5019942;28;20241;-75
2022/02/02 08:12:50;;;;;;;4.10;2.27;;;9.00;1.00;;;;;;5051140;28;20869;-76
2022/02/02 08:15:20;;;;;;;10.03;2.50;;;9.00;1.00;;;;;;5052507;28;20418;-75
2022/02/02 08:17:48;;;;;;;7.80;2.50;;;;;;;;;;5051464;28;20740;-75
2022/02/02 08:20:15;;;;;;;11.77;2.40;;;8.90;1.00;;;;;;5055659;28;20939;-75
2022/02/02 08:22:44;;;;;;;12.97;3.27;;;9.00;1.00;;;;;;5055821;28;21000;-75
2022/02/02 08:25:13;;;;;;;6.30;1.70;;;9.00;1.00;;;;;;5050684;28;20476;-75
2022/02/02 08:27:40;;;;;;;9.27;2.53;;;10.60;1.00;;;;;;5052221;28;20897;-75
2022/02/02 08:30:11;;;;;;;20.00;3.50;;;9.10;1.00;;;;;;5054545;28;20861;-76
2022/02/02 08:32:45;;;;;;;10.80;2.43;;;9.10;1.00;;;;;;5056347;28;20411;-75
2022/02/02 08:35:14;;;;;;;18.13;2.80;;;9.20;1.00;;;;;;5056130;28;20441;-78
2022/02/02 08:37:44;;;;;;;8.33;2.30;;;9.20;1.00;;;;;;5055741;28;20483;-76
2022/02/02 08:40:18;;;;;;;10.80;2.70;;;9.30;1.00;;;;;;5055919;28;20445;-75
2022/02/02 08:42:49;;;;;;;7.87;2.50;;;9.30;1.00;;;;;;5055580;28;20496;-75
2022/02/02 08:45:25;;;;;;;11.37;2.80;;;9.30;1.00;;;;;;5056088;28;20422;-75
2022/02/02 08:47:59;;;;;;;12.47;3.00;;;9.20;1.00;;;;;;5056838;28;20435;-75
2022/02/02 08:50:49;;;;;;;10.43;3.13;;;9.20;1.00;;;;;;5056401;28;20912;-75
2022/02/02 08:53:29;;;;;;;9.33;2.73;;;;;;;;;;5054594;28;20897;-75
2022/02/02 09:00:51;;;;;;;6.53;2.00;;;9.00;1.00;;;;;;5055770;28;21004;-75
2022/02/02 09:06:07;;;;;;;16.10;2.70;;;8.90;1.00;;;;;;5054033;28;20555;-74
2022/02/02 09:08:34;;;;;;;9.97;2.17;;;9.00;1.00;;;;;;5055148;28;20410;-74
2022/02/02 09:24:34;;;;;;;5.83;1.60;;;9.50;1.00;;;;;;5055590;28;20421;-74
2022/02/02 09:32:48;;;;;;;3.80;1.83;;;9.70;1.00;;;;;;5054837;28;20804;-74
2022/02/02 09:35:14;;;;;;;4.90;1.80;;;9.90;1.00;;;;;;5055225;28;20420;-75
2022/02/02 09:37:43;;;;;;;13.90;2.60;;;10.00;1.00;;;;;;5054602;28;20906;-75
2022/02/02 09:41:09;;;;;;;7.53;2.03;;;10.90;1.00;;;;;;5055303;28;20243;-75
2022/02/02 09:43:13;;;;;;;11.40;2.20;;;10.20;1.00;;;;;;5051950;28;20410;-75
2022/02/02 09:45:39;;;;;;;7.07;1.80;;;10.30;1.00;;;;;;5050172;28;20433;-75
2022/02/02 09:48:15;;;;;;;10.50;2.63;;;10.00;1.00;;;;;;5051665;28;20800;-75
2022/02/02 09:50:48;;;;;;;6.23;1.80;;;10.20;1.00;;;;;;5053711;28;20183;-75
2022/02/02 09:53:33;;;;;;;8.53;2.13;;;10.20;1.00;;;;;;5053527;28;20446;-75
2022/02/02 09:56:17;;;;;;;9.60;1.77;;;10.20;1.00;;;;;;5054923;28;20587;-75
2022/02/02 09:59:03;;;;;;;8.97;1.70;;;10.10;1.00;;;;;;5053991;28;20459;-74
2022/02/02 10:07:26;;;;;;;6.30;2.00;;;9.90;1.00;;;;;;5052899;28;20472;-74
2022/02/02 10:15:43;;;;;;;10.77;2.33;;;9.50;1.00;;;;;;5044008;28;20419;-74
2022/02/02 10:18:21;;;;;;;8.33;2.80;;;9.30;1.00;;;;;;5050496;28;20437;-74
2022/02/02 10:20:54;;;;;;;6.07;2.57;;;9.40;1.00;;;;;;5049860;28;20469;-74
2022/02/02 10:23:32;;;;;;;5.53;1.83;;;9.50;1.00;;;;;;5048187;28;20480;-74
2022/02/02 10:26:21;;;;;;;3.90;1.73;;;9.50;1.00;;;;;;5047114;28;20453;-74
2022/02/02 10:28:48;;;;;;;12.53;2.57;;;9.60;1.00;;;;;;5049884;28;20464;-74
2022/02/02 10:31:14;;;;;;;11.20;2.47;;;9.50;1.00;;;;;;5045589;28;20514;-74
2022/02/02 10:33:40;;;;;;;7.70;2.40;;;9.60;1.00;;;;;;5054163;28;20501;-73
2022/02/02 10:39:14;;;;;;;8.60;1.73;;;9.80;1.00;;;;;;5040717;28;20419;-74
2022/02/02 10:41:50;;;;;;;13.87;3.20;;;9.90;1.00;;;;;;5049449;28;20414;-74
2022/02/02 10:44:37;;;;;;;6.80;1.40;;;9.90;1.00;;;;;;5039779;28;20765;-74
2022/02/02 10:47:24;;;;;;;6.50;2.30;;;10.00;1.00;;;;;;5051089;28;20454;-75
2022/02/02 10:50:23;;;;;;;15.30;2.10;;;10.20;1.00;;;;;;5047141;28;20892;-74
2022/02/02 10:53:16;;;;;;;12.13;2.77;;;10.40;1.00;;;;;;5030789;28;21031;-74
2022/02/02 10:58:28;;;;;;;3.67;1.57;;;10.50;1.00;;;;;;5039385;28;20428;-74
2022/02/02 11:08:53;;;;;;;10.43;2.03;;;10.90;1.00;;;;;;5035311;28;20414;-74
2022/02/02 11:11:25;;;;;;;8.43;2.40;;;11.00;1.00;;;;;;5052939;28;20509;-75
2022/02/02 11:14:01;;;;;;;6.50;2.23;;;10.90;1.00;;;;;;5043948;28;20403;-75
2022/02/02 11:16:38;;;;;;;18.83;2.80;;;11.00;1.00;;;;;;5046112;28;20492;-74
2022/02/02 11:19:07;;;;;;;4.00;1.83;;;11.10;1.00;;;;;;5046059;28;20477;-75
2022/02/02 11:21:35;;;;;;;5.53;1.73;;;11.20;1.00;;;;;;5034140;28;20442;-75
2022/02/02 11:24:19;;;;;;;7.83;2.03;;;11.20;1.00;;;;;;5041324;28;20422;-75
2022/02/02 11:26:45;;;;;;;12.43;2.23;;;11.20;1.00;;;;;;5041724;28;20491;-75
2022/02/02 11:29:41;;;;;;;8.90;2.20;;;11.20;1.00;;;;;;5038633;28;20548;-75
2022/02/02 11:32:14;;;;;;;8.40;2.03;;;11.20;1.00;;;;;;5040395;28;20416;-75
2022/02/02 11:34:43;;;;;;;7.27;2.43;;;11.20;1.00;;;;;;5040476;28;20438;-75
2022/02/02 11:37:13;;;;;;;4.70;2.00;;;11.10;1.00;;;;;;5038583;28;20504;-75
2022/02/02 11:40:03;;;;;;;4.13;1.87;;;11.10;1.00;;;;;;5043267;28;20426;-74
2022/02/02 11:43:03;;;;;;;8.70;1.70;;;11.10;1.00;;;;;;5046350;28;20439;-75
2022/02/02 11:45:52;;;;;;;17.00;2.60;;;11.10;1.00;;;;;;5040503;28;20460;-73
2022/02/02 11:48:59;;;;;;;11.10;2.10;;;11.10;1.00;;;;;;5048207;28;20431;-75
2022/02/02 11:51:42;;;;;;;10.57;2.07;;;11.20;1.00;;;;;;5043376;28;20415;-75
2022/02/02 11:54:10;;;;;;;6.43;1.53;;;11.30;1.00;;;;;;5039210;28;20461;-75
2022/02/02 11:57:17;;;;;;;13.27;2.23;;;11.30;1.00;;;;;;5048384;28;20484;-75
2022/02/02 12:00:09;;;;;;;6.93;2.23;;;11.20;1.00;;;;;;5038310;28;20448;-75
2022/02/02 12:02:53;;;;;;;4.00;1.90;;;11.30;1.00;;;;;;5055859;28;20509;-75
2022/02/02 12:11:04;;;;;;;3.93;1.57;;;11.50;1.00;;;;;;5040852;28;20430;-75
2022/02/02 12:44:37;;;;;;;6.07;1.70;;;11.20;1.00;;;;;;5053227;28;20780;-75
2022/02/02 12:47:10;;;;;;;14.80;2.70;;;11.00;1.00;;;;;;5045431;28;20511;-75
2022/02/02 12:58:30;;;;;;;4.57;1.83;;;11.20;1.00;;;;;;5063354;28;20872;-75
2022/02/02 13:01:20;;;;;;;4.77;2.30;;;11.10;1.00;;;;;;5044981;28;20410;-75
2022/02/02 13:03:57;;;;;;;3.43;1.53;;;11.00;1.00;;;;;;5051260;28;20404;-75
2022/02/02 13:06:24;;;;;;;8.90;2.50;;;;;;;;;;5036717;28;20449;-75
2022/02/02 13:08:53;;;;;;;8.73;1.90;;;10.90;1.00;;;;;;5045344;28;20482;-75
2022/02/02 13:11:31;;;;;;;5.40;1.50;;;10.90;1.00;;;;;;5052783;28;20743;-74
2022/02/02 13:14:11;;;;;;;5.63;1.77;;;10.90;1.00;;;;;;5034611;28;20411;-74
2022/02/02 13:16:37;;;;;;;9.33;1.60;;;10.90;1.00;;;;;;5035926;28;20456;-74
2022/02/02 13:19:27;;;;;;;2.80;1.67;;;10.70;1.00;;;;;;5047433;28;20972;-75
2022/02/02 13:22:04;;;;;;;7.60;1.77;;;10.50;1.00;;;;;;5036341;28;20169;-74
2022/02/02 13:24:34;;;;;;;5.67;2.10;;;10.30;1.00;;;;;;5035778;28;20959;-74
2022/02/02 13:27:15;;;;;;;10.00;2.43;;;10.40;1.00;;;;;;5045979;28;20490;-75
2022/02/02 13:29:51;;;;;;;11.53;2.63;;;10.40;1.00;;;;;;5036447;28;20458;-74
2022/02/02 13:32:38;;;;;;;14.37;2.60;;;10.40;1.00;;;;;;5039812;28;20492;-74
2022/02/02 13:35:14;;;;;;;7.90;1.50;;;10.30;1.00;;;;;;5035835;28;20446;-75
2022/02/02 13:38:35;;;;;;;2.97;1.40;;;10.20;1.00;;;;;;5035982;28;20423;-76
2022/02/02 13:47:02;;;;;;;11.73;1.50;;;10.40;1.00;;;;;;5035436;28;20825;-75
2022/02/02 13:54:54;;;;;;;4.70;1.20;;;10.80;1.00;;;;;;5052580;28;20414;-75
2022/02/02 13:57:56;;;;;;;7.37;2.37;;;10.80;1.00;;;;;;5052774;28;20600;-76
2022/02/02 14:00:36;;;;;;;4.80;1.40;;;10.90;1.00;;;;;;5041776;28;20428;-75
2022/02/02 14:06:17;;;;;;;3.37;1.73;;;11.00;1.00;;;;;;5054142;28;20416;-74
2022/02/02 14:09:12;;;;;;;5.87;1.83;;;10.80;1.00;;;;;;5041918;28;21299;-76
2022/02/02 14:33:39;;;;;;;5.80;1.20;;;10.80;1.00;;;;;;5055162;28;20905;-79
2022/02/02 14:36:08;;;;;;;3.10;1.33;;;10.70;1.00;;;;;;5040897;28;20453;-77
2022/02/02 14:41:49;;;;;;;4.20;1.73;;;10.80;1.00;;;;;;5012686;28;20424;-77
2022/02/02 14:44:48;;;;;;;3.50;1.47;;;10.50;1.00;;;;;;5018045;28;20427;-75
2022/02/02 14:47:15;;;;;;;9.17;1.80;;;10.50;1.00;;;;;;5011292;28;20531;-76
2022/02/02 14:52:27;;;;;;;5.63;1.70;;;10.60;1.00;;;;;;5006052;28;20424;-79
2022/02/02 15:23:43;;;;;;;10.73;1.30;;;10.30;1.00;;;;;;5011018;28;21060;-75
2022/02/02 15:25:50;;;;;;;3.40;1.53;;;10.30;1.00;;;;;;5052319;28;20458;-76
2022/02/02 15:28:13;;;;;;;12.40;2.50;;;10.30;1.00;;;;;;5039750;28;20460;-75
2022/02/02 15:30:53;;;;;;;5.53;2.70;;;10.30;1.00;;;;;;5042127;28;20389;-76
2022/02/02 15:33:24;;;;;;;7.70;2.30;;;10.30;1.00;;;;;;5040503;28;20405;-75
2022/02/02 15:36:01;;;;;;;12.40;2.10;;;10.30;1.00;;;;;;5043025;28;20450;-75
2022/02/02 15:38:29;;;;;;;12.20;3.03;;;10.30;1.00;;;;;;5044330;28;20461;-77
2022/02/02 15:41:01;;;;;;;15.20;2.63;;;10.20;1.00;;;;;;5050888;28;20430;-78
2022/02/02 15:54:52;;;;;;;4.97;1.97;;;9.70;1.00;;;;;;5039021;28;20493;-74
2022/02/02 16:01:48;;;;;;;8.07;2.53;;;9.40;1.00;;;;;;5032834;28;20410;-79
2022/02/02 16:04:04;;;;;;;37.23;2.70;;;9.40;1.00;;;;;;5040402;28;20402;-81
2022/02/02 16:06:31;;;;;;;9.07;2.10;;;9.10;1.00;;;;;;5040696;28;20950;-75
2022/02/02 16:09:08;;;;;;;6.13;1.60;;;9.00;1.00;;;;;;5043513;28;20447;-73
2022/02/02 16:11:34;;;;;;;8.73;2.50;;;8.90;1.00;;;;;;5032614;28;20407;-75
2022/02/02 16:14:04;;;;;;;9.23;2.00;;;8.90;1.00;;;;;;5038423;28;20433;-76
2022/02/02 16:19:12;;;;;;;3.80;2.00;;;8.70;1.00;;;;;;5049851;28;20437;-75
2022/02/02 16:37:56;;;;;;;16.53;2.90;;;8.00;1.00;;;;;;5017922;28;20436;-75
2022/02/02 16:40:30;;;;;;;3.60;1.93;;;8.00;1.00;;;;;;5021823;28;20525;-75
2022/02/02 16:43:13;;;;;;;5.50;2.17;;;7.90;1.00;;;;;;5027796;28;20925;-75
2022/02/02 16:45:43;;;;;;;9.23;2.50;;;7.90;1.00;;;;;;5033601;28;20446;-75
2022/02/02 16:48:10;;;;;;;5.23;1.70;;;7.90;1.00;;;;;;5029094;28;20466;-75
2022/02/02 16:50:43;;;;;;;5.17;2.00;;;7.90;1.00;;;;;;5032747;28;20454;-75
2022/02/02 16:53:27;;;;;;;7.57;2.37;;;7.90;1.00;;;;;;5026483;28;20539;-75
2022/02/02 17:30:45;;;;;;;8.43;2.40;;;;;;;;;;5035134;28;20743;-74
2022/02/02 17:33:19;;;;;;;4.57;2.00;;;7.10;1.00;;;;;;5052619;28;20417;-75
2022/02/02 17:36:04;;;;;;;9.30;1.77;;;7.00;1.00;;;;;;5041604;28;20434;-75
2022/02/02 17:41:19;;;;;;;7.37;2.60;;;6.80;1.00;;;;;;5040037;28;20430;-76
2022/02/02 18:21:10;;;;;;;7.83;2.20;;;;;;;;;;5052833;28;20483;-75
2022/02/02 18:31:24;;;;;;;7.43;2.67;;;;;;;;;;5039304;28;20415;-75
2022/02/02 18:44:42;;;;;;;7.03;1.90;;;5.10;1.00;;;;;;5035507;28;20431;-76
2022/02/02 18:50:19;;;;;;;21.30;3.10;;;4.90;1.00;;;;;;5042770;28;20452;-76
2022/02/02 18:58:29;;;;;;;3.00;2.00;;;4.80;1.00;;;;;;5044686;28;20423;-76
2022/02/02 19:55:42;;;;;;;14.13;3.80;;;4.30;1.00;;;;;;4979183;28;20966;-74
2022/02/02 20:03:56;;;;;;;7.13;1.90;;;4.50;1.00;;;;;;4990003;28;20958;-74
2022/02/02 20:06:35;;;;;;;5.67;2.23;;;4.60;1.00;;;;;;4989861;28;20458;-74
2022/02/02 20:11:36;;;;;;;5.53;2.07;;;4.70;1.00;;;;;;4985426;28;20436;-74
2022/02/02 20:14:02;;;;;;;6.53;2.10;;;4.80;1.00;;;;;;4992781;28;20540;-74
2022/02/02 20:16:27;;;;;;;12.63;3.13;;;4.80;1.00;;;;;;5037619;28;20424;-74
2022/02/02 20:18:56;;;;;;;7.23;2.67;;;;;;;;;;5041442;28;20434;-74
2022/02/02 20:21:25;;;;;;;6.10;2.73;;;4.80;1.00;;;;;;5037625;28;20173;-71
2022/02/02 20:23:51;;;;;;;14.37;3.30;;;4.80;1.00;;;;;;5036266;28;20513;-75
2022/02/02 20:26:21;;;;;;;5.03;2.77;;;4.80;1.00;;;;;;5036851;28;20450;-74
2022/02/02 20:28:47;;;;;;;8.50;3.10;;;4.80;1.00;;;;;;5036397;28;20415;-74
2022/02/02 20:31:14;;;;;;;9.33;3.23;;;4.80;1.00;;;;;;5036308;28;20555;-74
2022/02/02 20:33:40;;;;;;;21.50;3.90;;;4.80;1.00;;;;;;5053121;28;20501;-74
2022/02/02 20:36:06;;;;;;;5.53;2.90;;;4.80;1.00;;;;;;5053930;28;20449;-74
2022/02/02 20:38:32;;;;;;;7.80;2.00;;;4.80;1.00;;;;;;5049205;28;20183;-74
2022/02/02 20:40:58;;;;;;;6.63;3.37;;;4.80;1.00;;;;;;5043042;28;20502;-74
2022/02/02 21:10:40;;;;;;;5.63;2.60;;;5.10;1.00;;;;;;5013220;28;20466;-74
2022/02/02 21:15:51;;;;;;;14.87;2.80;;;5.20;1.00;;;;;;5012692;28;20601;-74
2022/02/02 21:18:20;;;;;;;8.30;2.90;;;5.30;1.00;;;;;;5012672;28;20439;-74
2022/02/02 21:23:26;;;;;;;7.00;2.50;;;5.40;1.00;;;;;;5012423;28;21047;-75
2022/02/02 21:28:34;;;;;;;8.90;2.80;;;5.40;1.00;;;;;;5012400;28;20424;-74
2022/02/02 21:31:00;;;;;;;12.87;3.47;;;5.40;1.00;;;;;;5013084;28;20412;-74
2022/02/02 21:33:27;;;;;;;4.60;2.60;;;5.30;1.00;;;;;;5012134;28;20474;-74
2022/02/02 21:35:55;;;;;;;15.33;3.07;;;5.50;1.00;;;;;;5012766;28;20529;-74
2022/02/02 21:40:54;;;;;;;9.53;3.27;;;5.50;1.00;;;;;;5012625;28;20424;-74
2022/02/02 21:43:20;;;;;;;8.40;2.83;;;5.50;1.00;;;;;;5012646;28;20518;-74
2022/02/02 21:45:46;;;;;;;10.10;3.70;;;5.50;1.00;;;;;;5043014;28;20419;-74
2022/02/02 21:48:12;;;;;;;9.37;3.10;;;5.50;1.00;;;;;;5039763;28;20454;-74
2022/02/02 21:50:52;;;;;;;14.30;3.27;;;5.60;1.00;;;;;;5054468;28;20254;-74
2022/02/02 21:53:18;;;;;;;5.93;2.43;;;5.60;1.00;;;;;;5047900;28;20168;-74
2022/02/02 21:55:44;;;;;;;9.73;3.77;;;;;;;;;;5053121;28;20990;-74
2022/02/02 21:58:11;;;;;;;9.80;3.30;;;5.70;1.00;;;;;;5050415;28;20426;-74
2022/02/02 22:00:37;;;;;;;8.30;3.00;;;5.70;1.00;;;;;;5034654;28;20411;-74
2022/02/02 22:03:03;;;;;;;9.03;3.40;;;;;;;;;;5034602;28;20422;-74
2022/02/02 22:05:30;;;;;;;9.52;2.85;;;;;;;;;;5034464;28;20410;-74
2022/02/02 22:07:56;;;;;;;6.10;2.63;;;5.80;1.00;;;;;;5036017;28;20249;-74
2022/02/02 22:10:22;;;;;;;5.50;3.10;;;5.70;1.00;;;;;;5034225;28;20415;-74
2022/02/02 22:12:48;;;;;;;5.83;3.27;;;5.70;1.00;;;;;;5035965;28;20168;-74
2022/02/02 22:15:27;;;;;;;10.87;3.40;;;5.70;1.00;;;;;;5049034;28;20509;-74
2022/02/02 22:17:53;;;;;;;4.00;2.87;;;5.80;1.00;;;;;;5035139;28;20407;-74
2022/02/02 22:20:19;;;;;;;4.40;2.47;;;5.80;1.00;;;;;;5034400;28;20430;-74
2022/02/02 22:22:46;;;;;;;6.50;2.70;;;5.80;1.00;;;;;;5039841;28;20418;-74
2022/02/02 22:25:12;;;;;;;15.77;4.00;;;5.80;1.00;;;;;;5052090;28;20180;-75
2022/02/02 22:27:38;;;;;;;12.57;3.47;;;5.90;1.00;;;;;;5034610;28;20504;-74
2022/02/02 22:30:05;;;;;;;4.83;2.57;;;5.90;1.00;;;;;;5050875;28;20176;-74
2022/02/02 22:32:31;;;;;;;11.97;3.63;;;5.90;1.00;;;;;;5034336;28;20514;-74
2022/02/02 22:34:57;;;;;;;7.10;3.20;;;5.90;1.00;;;;;;5033674;28;20422;-74
2022/02/02 22:37:23;;;;;;;9.33;2.60;;;6.00;1.00;;;;;;5034127;28;20537;-74
2022/02/02 22:39:51;;;;;;;9.43;3.47;;;5.90;1.00;;;;;;5033666;28;20514;-74
2022/02/02 22:42:20;;;;;;;5.43;3.10;;;6.00;1.00;;;;;;5035043;28;20419;-74
2022/02/02 22:44:46;;;;;;;6.20;2.97;;;5.90;1.00;;;;;;5033549;28;20514;-74
2022/02/02 22:47:14;;;;;;;5.80;3.33;;;;;;;;;;5035349;28;20449;-74
2022/02/02 22:49:43;;;;;;;11.33;3.00;;;6.00;1.00;;;;;;5052551;28;20483;-75
2022/02/02 22:52:10;;;;;;;6.97;3.20;;;6.00;1.00;;;;;;5045763;28;20516;-75
2022/02/02 22:54:38;;;;;;;9.50;3.10;;;6.00;1.00;;;;;;5049096;28;20523;-75
2022/02/02 22:57:06;;;;;;;9.83;3.57;;;6.00;1.00;;;;;;5046290;28;20773;-74
2022/02/02 22:59:33;;;;;;;11.27;3.47;;;6.00;1.00;;;;;;5052515;28;20422;-74
2022/02/02 23:02:07;;;;;;;11.87;3.40;;;6.10;1.00;;;;;;5044725;28;20588;-74
2022/02/02 23:04:33;;;;;;;6.67;2.77;;;6.20;1.00;;;;;;5033152;28;20453;-74
2022/02/02 23:07:03;;;;;;;10.50;2.90;;;;;;;;;;5045874;28;20871;-74
2022/02/02 23:09:28;;;;;;;20.03;4.17;;;6.20;1.00;;;;;;5046467;28;20171;-74
2022/02/02 23:11:54;;;;;;;9.27;3.30;;;6.20;1.00;;;;;;5038439;28;20425;-74
2022/02/02 23:14:27;;;;;;;13.97;4.10;;;6.20;1.00;;;;;;5032141;28;20184;-74
2022/02/02 23:16:55;;;;;;;10.27;2.90;;;6.20;1.00;;;;;;5042403;28;20182;-74
2022/02/02 23:19:21;;;;;;;11.00;3.70;;;6.20;1.00;;;;;;5044798;28;20425;-74
2022/02/02 23:21:48;;;;;;;11.80;3.07;;;6.20;1.00;;;;;;5039639;28;20427;-75
2022/02/02 23:24:15;;;;;;;4.70;2.73;;;6.30;1.00;;;;;;5049443;28;20422;-75
2022/02/02 23:26:44;;;;;;;8.93;3.80;;;6.30;1.00;;;;;;5042008;28;20454;-74
2022/02/02 23:29:10;;;;;;;9.63;3.60;;;6.30;1.00;;;;;;5052451;28;20461;-74
2022/02/02 23:31:37;;;;;;;5.10;3.23;;;6.30;1.00;;;;;;5043820;28;20452;-74
2022/02/02 23:34:03;;;;;;;11.80;3.00;;;6.40;1.00;;;;;;5032925;28;20407;-74
2022/02/02 23:36:28;;;;;;;14.00;3.60;;;6.40;1.00;;;;;;5034391;28;20442;-74
2022/02/02 23:38:54;;;;;;;6.77;3.50;;;;;;;;;;5039061;28;21063;-74
2022/02/02 23:44:05;;;;;;;10.13;3.13;;;6.40;1.00;;;;;;5042749;28;20557;-74
2022/02/02 23:46:31;;;;;;;9.60;3.27;;;6.50;1.00;;;;;;5037249;28;20586;-75
2022/02/02 23:49:09;;;;;;;11.10;3.53;;;6.50;1.00;;;;;;5045652;28;20222;-75
2022/02/02 23:51:38;;;;;;;5.93;3.50;;;6.50;1.00;;;;;;5050684;28;20421;-74
2022/02/02 23:54:07;;;;;;;7.63;3.27;;;6.50;1.00;;;;;;5052559;28;20421;-74
